Time;durP1;ratioP1;P1;durP2;ratioP2;P2;SDS_P1;SDS_P2;PMS_P1;PMS_P2;Temp;Humidity;BMP_temperature;BMP_pressure;BME280_temperature;BME280_humidity;BME280_pressure;Samples;Min_cycle;Max_cycle;Signal;HPM_P1;HPM_P2
2023/11/09 00:01:20;;;;;;;0.30;0.30;;;9.60;99.90;;;;;;5110251;28;20176;-76
2023/11/09 00:03:46;;;;;;;0.30;0.20;;;9.50;99.90;;;;;;5109382;28;20599;-89
2023/11/09 00:06:11;;;;;;;0.30;0.20;;;9.50;99.90;;;;;;5109532;28;20168;-89
2023/11/09 00:08:42;;;;;;;0.30;0.20;;;9.50;99.90;;;;;;5108367;28;20279;-76
2023/11/09 00:11:08;;;;;;;0.30;0.20;;;9.40;99.90;;;;;;5108649;28;20196;-77
2023/11/09 00:13:34;;;;;;;0.30;0.20;;;9.40;99.90;;;;;;5108786;28;20191;-77
2023/11/09 00:15:59;;;;;;;0.30;0.20;;;9.40;99.90;;;;;;5107744;28;20570;-89
2023/11/09 00:18:25;;;;;;;0.30;0.20;;;9.40;99.90;;;;;;5108408;28;20234;-84
2023/11/09 00:20:51;;;;;;;0.30;0.20;;;9.40;99.90;;;;;;5107854;28;20555;-88
2023/11/09 00:23:21;;;;;;;0.30;0.20;;;9.30;99.90;;;;;;5109559;28;20199;-77
2023/11/09 00:25:47;;;;;;;0.30;0.20;;;9.30;99.90;;;;;;5109387;28;20718;-89
2023/11/09 00:28:16;;;;;;;0.30;0.20;;;9.30;99.90;;;;;;5108597;28;20223;-90
2023/11/09 00:30:43;;;;;;;0.30;0.20;;;9.30;99.90;;;;;;5109517;28;20746;-89
2023/11/09 00:33:08;;;;;;;0.40;0.30;;;9.30;99.90;;;;;;5107680;28;20208;-89
2023/11/09 00:35:34;;;;;;;0.30;0.20;;;9.20;99.90;;;;;;5109464;28;20183;-88
2023/11/09 00:38:03;;;;;;;0.30;0.20;;;9.30;99.90;;;;;;5107910;28;20195;-89
2023/11/09 00:40:29;;;;;;;0.30;0.20;;;9.20;99.90;;;;;;5109699;28;20172;-89
2023/11/09 00:42:54;;;;;;;1.13;1.13;;;9.20;99.90;;;;;;5108682;28;20574;-89
2023/11/09 00:45:20;;;;;;;0.30;0.20;;;9.30;99.90;;;;;;5114327;28;20241;-88
2023/11/09 00:47:46;;;;;;;0.30;0.20;;;9.30;99.90;;;;;;5108845;28;20651;-76
2023/11/09 00:50:16;;;;;;;0.40;0.40;;;9.30;99.90;;;;;;5107642;28;20441;-76
2023/11/09 00:52:42;;;;;;;2.38;2.28;;;9.30;99.90;;;;;;5108632;28;20259;-77
2023/11/09 00:55:09;;;;;;;0.30;0.20;;;9.30;99.90;;;;;;5109229;28;20263;-80
2023/11/09 00:57:35;;;;;;;0.30;0.20;;;9.30;99.90;;;;;;5108419;28;20457;-89
2023/11/09 01:00:02;;;;;;;0.30;0.20;;;9.30;99.90;;;;;;5107438;27;20595;-77
2023/11/09 01:02:33;;;;;;;0.40;0.40;;;9.30;99.90;;;;;;5108179;28;20709;-89
2023/11/09 01:04:59;;;;;;;0.30;0.20;;;9.30;99.90;;;;;;5109063;27;20203;-89
2023/11/09 01:07:24;;;;;;;0.30;0.20;;;9.30;99.90;;;;;;5109216;28;20167;-89
2023/11/09 01:09:50;;;;;;;0.30;0.20;;;9.30;99.90;;;;;;5110780;28;20208;-85
2023/11/09 01:12:17;;;;;;;0.30;0.20;;;9.30;99.90;;;;;;5107036;28;20187;-83
2023/11/09 01:14:43;;;;;;;0.30;0.20;;;9.30;99.90;;;;;;5108463;28;20280;-77
2023/11/09 01:17:11;;;;;;;0.30;0.20;;;9.30;99.90;;;;;;5108328;28;20222;-77
2023/11/09 01:19:36;;;;;;;0.30;0.20;;;9.30;99.90;;;;;;5108983;28;20223;-77
2023/11/09 01:22:02;;;;;;;0.30;0.20;;;9.30;99.90;;;;;;5108553;28;20286;-77
2023/11/09 01:24:28;;;;;;;0.30;0.30;;;9.30;99.90;;;;;;5107259;28;20199;-89
2023/11/09 01:26:54;;;;;;;0.30;0.20;;;9.30;99.90;;;;;;5107812;28;20204;-81
2023/11/09 01:29:21;;;;;;;0.30;0.20;;;9.30;99.90;;;;;;5106356;28;20200;-83
2023/11/09 01:31:49;;;;;;;0.30;0.20;;;9.30;99.90;;;;;;5106396;28;20252;-77
2023/11/09 01:34:15;;;;;;;0.30;0.20;;;9.30;99.90;;;;;;5108505;28;20190;-77
2023/11/09 01:36:41;;;;;;;0.30;0.20;;;9.30;99.90;;;;;;5106657;28;20191;-77
2023/11/09 01:39:09;;;;;;;0.30;0.20;;;9.20;99.90;;;;;;5106766;28;20212;-89
2023/11/09 01:41:35;;;;;;;0.30;0.20;;;9.20;99.90;;;;;;5108121;28;20179;-89
2023/11/09 01:44:01;;;;;;;0.30;0.20;;;9.20;99.90;;;;;;5108615;28;20713;-78
2023/11/09 01:46:27;;;;;;;0.30;0.20;;;9.20;99.90;;;;;;5106304;28;20183;-88
2023/11/09 01:48:55;;;;;;;0.30;0.20;;;9.10;99.90;;;;;;5109379;28;20183;-88
2023/11/09 01:51:22;;;;;;;0.30;0.20;;;9.10;99.90;;;;;;5110536;28;20397;-89
2023/11/09 01:53:48;;;;;;;0.30;0.20;;;9.10;99.90;;;;;;5106974;28;20668;-90
2023/11/09 01:56:14;;;;;;;0.30;0.20;;;9.20;99.90;;;;;;5108537;28;20524;-76
2023/11/09 01:58:44;;;;;;;0.30;0.20;;;9.20;99.90;;;;;;5107745;28;20616;-89
2023/11/09 02:01:12;;;;;;;0.30;0.20;;;9.20;99.90;;;;;;5106339;28;20267;-89
2023/11/09 02:03:39;;;;;;;0.30;0.20;;;9.20;99.90;;;;;;5107372;28;20203;-89
2023/11/09 02:06:09;;;;;;;0.40;0.40;;;9.10;99.90;;;;;;5107815;28;20183;-77
2023/11/09 02:08:34;;;;;;;0.30;0.20;;;9.20;99.90;;;;;;5107684;28;20196;-89
2023/11/09 02:11:00;;;;;;;0.30;0.20;;;9.20;99.90;;;;;;5107593;28;20393;-88
2023/11/09 02:13:26;;;;;;;0.30;0.20;;;9.20;99.90;;;;;;5106755;28;20791;-89
2023/11/09 02:15:54;;;;;;;0.30;0.20;;;9.20;99.90;;;;;;5106040;28;20596;-77
2023/11/09 02:18:21;;;;;;;0.30;0.20;;;9.10;99.90;;;;;;5105829;28;20219;-77
2023/11/09 02:20:47;;;;;;;0.30;0.20;;;9.10;99.90;;;;;;5106720;28;20204;-76
2023/11/09 02:23:18;;;;;;;0.30;0.20;;;9.10;99.90;;;;;;5106034;28;20468;-76
2023/11/09 02:25:44;;;;;;;0.30;0.20;;;9.10;99.90;;;;;;5107127;28;20167;-77
2023/11/09 02:28:10;;;;;;;0.30;0.20;;;9.10;99.90;;;;;;5107162;28;20202;-87
2023/11/09 02:30:36;;;;;;;0.30;0.20;;;9.10;99.90;;;;;;5109935;28;20408;-77
2023/11/09 02:33:04;;;;;;;0.30;0.20;;;9.10;99.90;;;;;;5105090;28;20203;-76
2023/11/09 02:35:30;;;;;;;0.30;0.20;;;9.10;99.90;;;;;;5105882;28;20490;-90
2023/11/09 02:38:14;;;;;;;0.30;0.20;;;9.10;99.90;;;;;;5107111;28;20252;-89
2023/11/09 02:40:40;;;;;;;0.30;0.20;;;9.10;99.90;;;;;;5105773;28;20266;-77
2023/11/09 02:43:05;;;;;;;0.30;0.20;;;9.10;99.90;;;;;;5105469;28;20286;-89
2023/11/09 02:45:31;;;;;;;0.30;0.20;;;9.10;99.90;;;;;;5107061;28;20242;-88
2023/11/09 02:47:57;;;;;;;0.30;0.20;;;9.10;99.90;;;;;;5106493;28;20574;-90
2023/11/09 02:50:23;;;;;;;0.30;0.20;;;9.10;99.90;;;;;;5108474;28;20169;-89
2023/11/09 02:52:49;;;;;;;0.30;0.20;;;9.10;99.90;;;;;;5107254;28;20175;-89
2023/11/09 02:55:21;;;;;;;0.30;0.20;;;9.10;99.90;;;;;;5105379;28;20183;-76
2023/11/09 02:57:47;;;;;;;0.30;0.20;;;9.10;99.90;;;;;;5105409;28;20536;-76
2023/11/09 03:00:13;;;;;;;0.30;0.20;;;9.10;99.90;;;;;;5106742;28;20374;-88
2023/11/09 03:02:39;;;;;;;0.30;0.20;;;9.10;99.90;;;;;;5106285;28;20253;-88
2023/11/09 03:05:05;;;;;;;1.38;1.30;;;9.10;99.90;;;;;;5106859;28;20430;-76
2023/11/09 03:07:31;;;;;;;0.63;0.63;;;9.00;99.90;;;;;;5106251;28;20171;-88
2023/11/09 03:09:57;;;;;;;0.30;0.20;;;9.00;99.90;;;;;;5105566;28;20413;-87
2023/11/09 03:12:22;;;;;;;0.30;0.20;;;9.00;99.90;;;;;;5112336;28;20281;-76
2023/11/09 03:14:48;;;;;;;0.30;0.30;;;9.00;99.90;;;;;;5106450;28;20231;-76
2023/11/09 03:17:14;;;;;;;0.30;0.30;;;9.00;99.90;;;;;;5106478;28;20171;-76
2023/11/09 03:19:40;;;;;;;0.30;0.20;;;9.00;99.90;;;;;;5105081;28;20218;-76
2023/11/09 03:22:08;;;;;;;0.30;0.20;;;9.00;99.90;;;;;;5106189;28;20740;-88
2023/11/09 03:24:34;;;;;;;0.45;0.45;;;9.00;99.90;;;;;;5106221;28;20191;-88
2023/11/09 03:27:02;;;;;;;0.30;0.20;;;9.00;99.90;;;;;;5107802;28;20717;-77
2023/11/09 03:29:28;;;;;;;0.30;0.20;;;9.00;99.90;;;;;;5108646;28;20203;-88
2023/11/09 03:31:53;;;;;;;0.30;0.20;;;9.00;99.90;;;;;;5109589;28;20182;-76
2023/11/09 03:34:19;;;;;;;0.30;0.20;;;8.90;99.90;;;;;;5110574;28;20191;-76
2023/11/09 03:36:45;;;;;;;0.30;0.20;;;8.90;99.90;;;;;;5110678;28;20359;-76
2023/11/09 03:39:11;;;;;;;0.30;0.20;;;8.90;99.90;;;;;;5109051;28;20619;-88
2023/11/09 03:41:37;;;;;;;0.30;0.20;;;8.90;99.90;;;;;;5110098;28;20699;-87
2023/11/09 03:44:03;;;;;;;0.30;0.20;;;8.80;99.90;;;;;;5110349;28;20199;-76
2023/11/09 03:46:29;;;;;;;0.30;0.20;;;8.80;99.90;;;;;;5108632;28;20209;-81
2023/11/09 03:48:55;;;;;;;0.30;0.20;;;8.80;99.90;;;;;;5110065;28;20271;-88
2023/11/09 03:51:21;;;;;;;0.30;0.20;;;8.70;99.90;;;;;;5110071;28;20418;-88
2023/11/09 03:53:47;;;;;;;0.30;0.20;;;8.70;99.90;;;;;;5111236;28;20716;-88
2023/11/09 03:56:12;;;;;;;0.30;0.20;;;8.60;99.90;;;;;;5110855;28;20221;-88
2023/11/09 03:58:38;;;;;;;0.30;0.20;;;8.60;99.90;;;;;;5113097;28;20987;-88
2023/11/09 04:01:04;;;;;;;0.30;0.20;;;8.60;99.90;;;;;;5108543;28;20240;-76
2023/11/09 04:03:30;;;;;;;0.40;0.30;;;8.50;99.90;;;;;;5109768;28;20268;-77
2023/11/09 04:05:55;;;;;;;0.30;0.20;;;8.50;99.90;;;;;;5108134;28;20220;-77
2023/11/09 04:08:21;;;;;;;0.30;0.20;;;8.40;99.90;;;;;;5108429;28;20471;-88
2023/11/09 04:10:47;;;;;;;0.30;0.20;;;8.40;99.90;;;;;;5109941;28;20625;-87
2023/11/09 04:13:13;;;;;;;0.30;0.20;;;8.40;99.90;;;;;;5109789;28;20200;-89
2023/11/09 04:15:40;;;;;;;0.30;0.20;;;8.50;99.90;;;;;;5108213;28;20495;-89
2023/11/09 04:18:06;;;;;;;0.30;0.20;;;8.50;99.90;;;;;;5108117;28;20430;-89
2023/11/09 04:20:32;;;;;;;0.30;0.20;;;8.50;99.90;;;;;;5109614;28;20168;-76
2023/11/09 04:22:58;;;;;;;0.30;0.20;;;8.60;99.90;;;;;;5108750;28;20195;-76
2023/11/09 04:25:24;;;;;;;0.30;0.30;;;8.50;99.90;;;;;;5109382;28;20171;-77
2023/11/09 04:27:50;;;;;;;0.30;0.20;;;8.50;99.90;;;;;;5107662;28;20184;-89
2023/11/09 04:30:20;;;;;;;0.30;0.20;;;8.50;99.90;;;;;;5108939;28;20432;-87
2023/11/09 04:32:47;;;;;;;0.30;0.20;;;8.50;99.90;;;;;;5108648;28;20176;-76
2023/11/09 04:35:14;;;;;;;0.30;0.20;;;8.50;99.90;;;;;;5107889;28;20179;-88
2023/11/09 04:37:41;;;;;;;0.93;0.93;;;8.50;99.90;;;;;;5108434;28;20194;-77
2023/11/09 04:40:15;;;;;;;0.30;0.20;;;8.50;99.90;;;;;;5107502;28;20204;-77
2023/11/09 04:42:46;;;;;;;0.30;0.20;;;8.50;99.90;;;;;;5107147;28;20184;-88
2023/11/09 04:45:12;;;;;;;0.30;0.30;;;8.50;99.90;;;;;;5109090;27;20384;-88
2023/11/09 04:47:41;;;;;;;0.30;0.20;;;8.50;99.90;;;;;;5107301;27;20175;-76
2023/11/09 04:50:22;;;;;;;0.30;0.20;;;8.50;99.90;;;;;;5107309;28;20187;-76
2023/11/09 04:52:52;;;;;;;0.30;0.20;;;8.50;99.90;;;;;;5108290;28;20614;-76
2023/11/09 04:55:31;;;;;;;0.30;0.20;;;8.50;99.90;;;;;;5108957;28;20194;-76
2023/11/09 05:08:53;;;;;;;0.30;0.20;;;8.40;99.90;;;;;;5107637;28;20233;-88
2023/11/09 05:11:19;;;;;;;0.30;0.20;;;8.50;99.90;;;;;;5108351;28;20203;-86
2023/11/09 05:13:45;;;;;;;0.30;0.20;;;8.50;99.90;;;;;;5107807;28;20200;-77
2023/11/09 05:16:10;;;;;;;0.30;0.20;;;8.60;99.90;;;;;;5117403;27;20196;-88
2023/11/09 05:18:38;;;;;;;0.30;0.20;;;8.60;99.90;;;;;;5088706;28;20220;-76
2023/11/09 05:21:04;;;;;;;0.30;0.20;;;8.70;99.90;;;;;;5092277;28;20785;-76
2023/11/09 05:23:30;;;;;;;0.30;0.20;;;8.70;99.90;;;;;;5092521;28;20692;-76
2023/11/09 05:25:55;;;;;;;0.30;0.20;;;8.70;99.90;;;;;;5086003;28;20180;-76
2023/11/09 05:28:22;;;;;;;0.30;0.20;;;8.80;99.90;;;;;;5097826;28;20214;-76
2023/11/09 05:30:50;;;;;;;0.40;0.40;;;8.80;99.90;;;;;;5103896;28;20186;-76
2023/11/09 05:33:18;;;;;;;0.30;0.20;;;8.80;99.90;;;;;;5107576;28;20203;-76
2023/11/09 05:35:43;;;;;;;0.30;0.20;;;8.80;99.90;;;;;;5126067;27;20653;-76
2023/11/09 05:38:10;;;;;;;0.30;0.20;;;8.80;99.90;;;;;;5096681;28;20196;-76
2023/11/09 05:40:36;;;;;;;0.30;0.20;;;8.70;99.90;;;;;;5098315;28;20233;-76
2023/11/09 05:43:02;;;;;;;0.30;0.30;;;8.70;99.90;;;;;;5100970;28;20202;-76
2023/11/09 05:45:28;;;;;;;0.30;0.20;;;8.60;99.90;;;;;;5099347;28;20263;-82
2023/11/09 05:47:53;;;;;;;0.30;0.20;;;8.50;99.90;;;;;;5096816;28;20196;-76
2023/11/09 05:50:19;;;;;;;0.30;0.20;;;8.50;99.90;;;;;;5104016;28;20202;-76
2023/11/09 05:52:45;;;;;;;0.30;0.20;;;8.40;99.90;;;;;;5098791;28;20640;-76
2023/11/09 05:55:11;;;;;;;0.30;0.20;;;8.40;99.90;;;;;;5100927;28;20199;-76
2023/11/09 05:57:37;;;;;;;0.30;0.30;;;8.40;99.90;;;;;;5092606;28;20169;-87
2023/11/09 06:00:08;;;;;;;0.30;0.20;;;8.40;99.90;;;;;;5086700;28;20223;-76
2023/11/09 06:02:34;;;;;;;0.30;0.20;;;8.30;99.90;;;;;;5109058;27;20422;-76
2023/11/09 06:05:00;;;;;;;0.40;0.40;;;8.20;99.90;;;;;;5108924;27;20204;-76
2023/11/09 06:07:27;;;;;;;0.30;0.20;;;8.20;99.90;;;;;;5103256;27;20666;-76
2023/11/09 06:09:53;;;;;;;0.30;0.20;;;8.10;99.90;;;;;;5106647;27;20203;-76
2023/11/09 06:12:18;;;;;;;0.30;0.20;;;8.10;99.90;;;;;;5107411;27;20652;-85
2023/11/09 06:14:44;;;;;;;0.30;0.20;;;8.10;99.90;;;;;;5103365;28;20972;-87
2023/11/09 06:17:11;;;;;;;0.30;0.20;;;8.10;99.90;;;;;;5103338;28;20184;-76
2023/11/09 06:19:37;;;;;;;0.30;0.20;;;8.00;99.90;;;;;;5103243;28;20609;-87
2023/11/09 06:22:03;;;;;;;0.30;0.20;;;8.10;99.90;;;;;;5102589;28;20712;-87
2023/11/09 06:24:29;;;;;;;0.30;0.20;;;8.10;99.90;;;;;;5102887;28;20218;-88
2023/11/09 06:26:55;;;;;;;0.30;0.20;;;8.10;99.90;;;;;;5104943;28;20188;-76
2023/11/09 06:29:22;;;;;;;0.30;0.20;;;8.10;99.90;;;;;;5107972;27;20243;-89
2023/11/09 06:31:50;;;;;;;0.30;0.20;;;8.10;99.90;;;;;;5103550;28;20183;-88
2023/11/09 06:34:16;;;;;;;0.30;0.20;;;8.10;99.90;;;;;;5110128;27;20337;-87
2023/11/09 06:36:45;;;;;;;0.30;0.20;;;8.00;99.90;;;;;;5104932;28;20648;-76
2023/11/09 06:39:22;;;;;;;0.30;0.20;;;8.00;99.90;;;;;;5098125;28;20453;-89
2023/11/09 06:41:48;;;;;;;0.30;0.20;;;7.90;99.90;;;;;;5098642;28;20191;-89
2023/11/09 06:44:14;;;;;;;0.30;0.20;;;7.90;99.90;;;;;;5098513;28;20292;-90
2023/11/09 06:46:40;;;;;;;0.30;0.30;;;8.00;99.90;;;;;;5101096;28;20201;-88
2023/11/09 06:49:07;;;;;;;0.30;0.20;;;8.00;99.90;;;;;;5099106;28;20207;-87
2023/11/09 06:51:34;;;;;;;0.30;0.20;;;8.00;99.90;;;;;;5095022;28;20834;-76
2023/11/09 06:54:00;;;;;;;0.30;0.20;;;8.10;99.90;;;;;;5097221;28;20195;-76
2023/11/09 06:56:27;;;;;;;0.30;0.30;;;8.20;99.90;;;;;;5098498;28;20604;-75
2023/11/09 06:58:53;;;;;;;0.30;0.30;;;8.40;99.90;;;;;;5092215;28;20510;-88
2023/11/09 07:01:20;;;;;;;0.30;0.20;;;8.60;99.90;;;;;;5090293;28;20188;-88
2023/11/09 07:03:46;;;;;;;0.30;0.20;;;8.90;99.90;;;;;;5089054;28;20261;-77
2023/11/09 07:06:12;;;;;;;0.83;0.83;;;9.20;99.90;;;;;;5096831;28;20183;-76
2023/11/09 07:08:37;;;;;;;0.30;0.20;;;9.40;99.90;;;;;;5099368;28;20436;-77
2023/11/09 07:11:05;;;;;;;0.40;0.33;;;9.60;99.90;;;;;;5102860;28;20176;-80
2023/11/09 07:13:31;;;;;;;2.50;2.40;;;9.70;99.90;;;;;;5122868;27;20332;-77
2023/11/09 07:15:56;;;;;;;0.50;0.50;;;9.80;99.90;;;;;;5093522;28;20703;-77
2023/11/09 07:18:22;;;;;;;0.30;0.20;;;9.90;99.90;;;;;;5094817;28;20268;-89
2023/11/09 07:20:48;;;;;;;0.30;0.20;;;10.20;99.90;;;;;;5094986;28;20271;-81
2023/11/09 07:23:14;;;;;;;0.30;0.20;;;10.60;99.90;;;;;;5099001;28;20460;-89
2023/11/09 07:25:41;;;;;;;0.30;0.30;;;11.00;99.90;;;;;;5103189;28;20213;-88
2023/11/09 07:28:08;;;;;;;0.30;0.20;;;11.50;99.90;;;;;;5090354;28;20508;-77
2023/11/09 07:30:35;;;;;;;1.95;1.10;;;12.00;99.90;;;;;;5102886;28;20229;-89
2023/11/09 07:33:02;;;;;;;0.50;0.50;;;12.30;99.90;;;;;;5104900;28;20558;-77
2023/11/09 07:35:29;;;;;;;0.40;0.20;;;12.50;99.90;;;;;;5102902;28;20266;-79
2023/11/09 07:37:55;;;;;;;1.27;1.17;;;12.70;99.90;;;;;;5093430;28;20715;-86
2023/11/09 07:40:22;;;;;;;0.40;0.30;;;13.20;99.90;;;;;;5099809;28;20221;-90
2023/11/09 07:42:49;;;;;;;0.40;0.20;;;13.90;99.90;;;;;;5112033;27;20434;-90
2023/11/09 07:45:16;;;;;;;0.40;0.40;;;14.60;99.90;;;;;;5120096;27;20948;-91
2023/11/09 07:47:43;;;;;;;1.10;0.73;;;15.20;99.90;;;;;;5092684;28;20419;-88
2023/11/09 07:50:10;;;;;;;0.40;0.20;;;15.80;99.90;;;;;;5099419;28;20682;-89
2023/11/09 07:52:36;;;;;;;0.33;0.20;;;16.50;99.90;;;;;;5098612;28;20453;-87
2023/11/09 07:55:05;;;;;;;1.13;1.03;;;17.20;99.90;;;;;;5097641;28;20427;-79
2023/11/09 07:57:31;;;;;;;0.40;0.40;;;17.60;99.90;;;;;;5121077;27;20430;-87
2023/11/09 07:59:57;;;;;;;0.40;0.20;;;17.90;99.90;;;;;;5093884;28;20965;-89
2023/11/09 08:02:23;;;;;;;0.40;0.40;;;18.20;99.90;;;;;;5092664;28;20467;-77
2023/11/09 08:04:49;;;;;;;1.33;1.23;;;18.40;99.90;;;;;;5096399;28;20746;-89
2023/11/09 08:07:15;;;;;;;0.70;0.70;;;18.50;99.90;;;;;;5100133;28;20422;-78
2023/11/09 08:09:42;;;;;;;0.30;0.20;;;18.80;99.90;;;;;;5096992;28;20467;-78
2023/11/09 08:12:08;;;;;;;0.30;0.20;;;19.20;99.90;;;;;;5095711;28;20429;-86
2023/11/09 08:14:33;;;;;;;0.40;0.20;;;19.50;99.90;;;;;;5103326;28;21004;-78
2023/11/09 08:17:00;;;;;;;0.30;0.20;;;19.80;99.90;;;;;;5095641;28;20185;-79
2023/11/09 08:19:26;;;;;;;0.30;0.20;;;20.10;99.90;;;;;;5121858;27;20262;-87
2023/11/09 08:21:52;;;;;;;2.67;2.47;;;20.10;99.90;;;;;;5123015;27;20699;-78
2023/11/09 08:24:17;;;;;;;0.37;0.20;;;20.00;99.90;;;;;;5100386;28;20575;-87
2023/11/09 08:26:44;;;;;;;0.40;0.20;;;19.70;99.90;;;;;;5100893;28;20269;-80
2023/11/09 08:29:09;;;;;;;0.40;0.20;;;19.30;99.90;;;;;;5098457;28;20217;-87
2023/11/09 08:31:37;;;;;;;0.30;0.20;;;18.70;99.90;;;;;;5098032;28;20415;-87
2023/11/09 08:34:02;;;;;;;0.50;0.50;;;18.20;99.90;;;;;;5090957;28;20203;-79
2023/11/09 08:36:28;;;;;;;0.40;0.20;;;17.80;99.90;;;;;;5097940;28;20412;-88
2023/11/09 08:38:54;;;;;;;0.30;0.20;;;17.40;99.90;;;;;;5123363;27;20571;-78
2023/11/09 08:41:21;;;;;;;0.30;0.20;;;17.10;99.90;;;;;;5097128;28;20198;-88
2023/11/09 08:43:49;;;;;;;0.30;0.20;;;16.80;99.90;;;;;;5097658;28;20541;-88
2023/11/09 08:46:15;;;;;;;0.30;0.20;;;16.50;99.90;;;;;;5095472;28;20551;-79
2023/11/09 08:48:41;;;;;;;0.30;0.30;;;16.20;99.90;;;;;;5097344;28;20448;-79
2023/11/09 08:51:11;;;;;;;2.10;1.90;;;15.90;99.90;;;;;;5097181;28;20412;-87
2023/11/09 08:53:37;;;;;;;0.40;0.23;;;15.60;99.90;;;;;;5091496;28;20249;-88
2023/11/09 08:56:03;;;;;;;0.30;0.20;;;15.40;99.90;;;;;;5109549;28;20948;-79
2023/11/09 08:58:29;;;;;;;0.40;0.37;;;15.30;99.90;;;;;;5108434;27;20200;-88
2023/11/09 09:01:01;;;;;;;0.40;0.20;;;15.20;99.90;;;;;;5103560;28;20685;-80
2023/11/09 09:03:27;;;;;;;0.80;0.80;;;15.10;99.90;;;;;;5122424;27;20273;-88
2023/11/09 09:05:55;;;;;;;0.50;0.50;;;15.10;99.90;;;;;;5115310;27;20440;-90
2023/11/09 09:08:23;;;;;;;0.93;0.93;;;15.20;99.90;;;;;;5101915;28;20999;-89
2023/11/09 09:10:49;;;;;;;0.30;0.20;;;15.20;99.90;;;;;;5103225;28;20435;-80
2023/11/09 09:13:16;;;;;;;0.60;0.57;;;15.20;99.90;;;;;;5104009;28;20959;-90
2023/11/09 09:15:45;;;;;;;0.50;0.43;;;15.20;99.90;;;;;;5100480;28;20472;-79
2023/11/09 09:18:10;;;;;;;0.30;0.20;;;15.30;99.90;;;;;;5123573;27;20985;-79
2023/11/09 09:20:38;;;;;;;0.30;0.20;;;15.40;99.90;;;;;;5100140;28;20450;-88
2023/11/09 09:23:04;;;;;;;0.40;0.40;;;15.40;99.90;;;;;;5118697;27;20664;-89
2023/11/09 09:25:30;;;;;;;0.30;0.20;;;15.30;99.90;;;;;;5114633;27;20436;-80
2023/11/09 09:27:56;;;;;;;0.30;0.20;;;15.20;99.90;;;;;;5111013;27;20442;-88
2023/11/09 09:30:25;;;;;;;0.30;0.20;;;15.20;99.90;;;;;;5103216;28;20387;-87
2023/11/09 09:32:55;;;;;;;0.30;0.20;;;15.10;99.90;;;;;;5104748;27;20180;-91
2023/11/09 09:35:25;;;;;;;0.30;0.20;;;14.90;99.90;;;;;;5094465;28;20424;-79
2023/11/09 09:37:51;;;;;;;1.23;1.13;;;14.80;99.90;;;;;;5100250;28;20436;-79
2023/11/09 09:40:22;;;;;;;0.30;0.20;;;14.80;99.90;;;;;;5100370;28;20456;-88
2023/11/09 09:42:52;;;;;;;0.50;0.50;;;14.70;99.90;;;;;;5082467;28;20437;-90
2023/11/09 09:45:30;;;;;;;0.67;0.67;;;14.70;99.90;;;;;;5085948;28;20790;-79
2023/11/09 09:48:01;;;;;;;0.30;0.20;;;14.70;99.90;;;;;;5099895;27;20433;-78
2023/11/09 09:50:37;;;;;;;0.30;0.20;;;14.80;99.90;;;;;;5101819;28;20466;-79
2023/11/09 09:53:04;;;;;;;0.30;0.20;;;14.80;99.90;;;;;;5100416;28;20774;-79
2023/11/09 09:55:30;;;;;;;0.30;0.20;;;14.90;99.90;;;;;;5099676;28;20499;-91
2023/11/09 09:57:59;;;;;;;0.50;0.50;;;14.80;99.90;;;;;;5103944;28;20535;-90
2023/11/09 10:00:28;;;;;;;4.33;1.47;;;14.70;99.90;;;;;;5113480;27;20763;-79
2023/11/09 10:02:56;;;;;;;0.30;0.20;;;14.60;99.90;;;;;;5106002;28;20456;-79
2023/11/09 10:05:24;;;;;;;0.60;0.60;;;14.50;99.90;;;;;;5114811;27;20522;-78
2023/11/09 10:07:56;;;;;;;2.00;1.37;;;14.50;99.90;;;;;;5101338;28;20570;-78
2023/11/09 10:10:22;;;;;;;0.30;0.20;;;14.40;99.90;;;;;;5102566;28;20407;-90
2023/11/09 10:12:47;;;;;;;0.30;0.20;;;14.40;99.90;;;;;;5098170;28;20771;-79
2023/11/09 10:15:15;;;;;;;1.57;1.47;;;14.50;99.90;;;;;;5100081;28;20719;-91
2023/11/09 10:17:41;;;;;;;0.30;0.30;;;14.50;99.90;;;;;;5101760;28;22024;-79
2023/11/09 10:20:16;;;;;;;0.30;0.20;;;14.60;99.90;;;;;;5099559;28;20826;-89
2023/11/09 10:22:43;;;;;;;0.30;0.20;;;14.70;99.90;;;;;;5099475;27;20435;-79
2023/11/09 10:25:14;;;;;;;0.30;0.20;;;14.70;99.90;;;;;;5104556;27;20980;-79
2023/11/09 10:27:39;;;;;;;0.30;0.20;;;14.70;99.90;;;;;;5099369;28;20636;-79
2023/11/09 10:30:07;;;;;;;1.43;1.20;;;14.80;99.90;;;;;;5097597;28;20432;-79
2023/11/09 10:32:36;;;;;;;0.30;0.20;;;14.90;99.90;;;;;;5101411;27;20203;-80
2023/11/09 10:35:05;;;;;;;0.30;0.20;;;14.90;99.90;;;;;;5096298;28;20450;-78
2023/11/09 10:37:37;;;;;;;0.30;0.20;;;14.90;99.90;;;;;;5097537;28;20414;-90
2023/11/09 10:40:06;;;;;;;0.30;0.20;;;14.90;99.90;;;;;;5100406;28;21000;-86
2023/11/09 10:42:31;;;;;;;0.30;0.20;;;15.10;99.90;;;;;;5088029;28;20932;-86
2023/11/09 10:45:01;;;;;;;0.30;0.20;;;15.20;99.90;;;;;;5102555;28;20465;-87
2023/11/09 10:47:28;;;;;;;0.40;0.40;;;15.20;99.90;;;;;;5092017;28;20168;-85
2023/11/09 10:49:55;;;;;;;0.30;0.20;;;15.10;99.90;;;;;;5100513;28;20593;-78
2023/11/09 10:52:21;;;;;;;0.30;0.20;;;15.10;99.90;;;;;;5105121;27;20433;-85
2023/11/09 10:54:51;;;;;;;0.30;0.20;;;15.10;99.90;;;;;;5101741;28;20436;-78
2023/11/09 10:57:20;;;;;;;0.30;0.20;;;15.10;99.90;;;;;;5095729;28;20524;-86
2023/11/09 10:59:48;;;;;;;0.30;0.20;;;15.10;99.90;;;;;;5096513;28;21135;-86
2023/11/09 11:02:23;;;;;;;0.40;0.40;;;15.20;99.90;;;;;;5101913;27;20482;-78
2023/11/09 11:04:55;;;;;;;0.30;0.20;;;15.20;99.90;;;;;;5098943;28;20463;-78
2023/11/09 11:07:25;;;;;;;0.50;0.40;;;15.30;99.90;;;;;;5099431;28;20522;-78
2023/11/09 11:09:52;;;;;;;0.30;0.20;;;15.30;99.90;;;;;;5096605;27;20441;-79
2023/11/09 11:12:20;;;;;;;0.47;0.47;;;15.40;99.90;;;;;;5101571;28;20495;-86
2023/11/09 11:14:49;;;;;;;2.00;1.57;;;15.40;99.90;;;;;;5101581;28;20494;-78
2023/11/09 11:17:33;;;;;;;0.30;0.20;;;15.40;99.90;;;;;;5108940;28;20421;-78
2023/11/09 11:20:12;;;;;;;0.30;0.20;;;15.50;99.90;;;;;;5086780;28;20476;-87
2023/11/09 11:22:56;;;;;;;0.30;0.20;;;15.50;99.90;;;;;;5106870;28;20439;-78
2023/11/09 11:25:36;;;;;;;0.30;0.20;;;15.50;99.90;;;;;;5096541;28;20540;-87
2023/11/09 11:28:04;;;;;;;0.30;0.20;;;15.40;99.90;;;;;;5086830;28;20581;-86
2023/11/09 11:30:35;;;;;;;0.30;0.20;;;15.40;99.90;;;;;;5100028;28;20715;-87
2023/11/09 11:33:05;;;;;;;0.30;0.20;;;15.40;99.90;;;;;;5090270;28;20453;-86
2023/11/09 11:35:43;;;;;;;0.30;0.20;;;15.40;99.90;;;;;;5093909;28;20757;-86
2023/11/09 11:38:23;;;;;;;0.30;0.20;;;15.40;99.90;;;;;;5090615;28;20511;-86
2023/11/09 11:41:11;;;;;;;0.30;0.20;;;15.40;99.90;;;;;;5095161;28;20992;-78
2023/11/09 11:43:41;;;;;;;0.30;0.20;;;15.40;99.90;;;;;;5097078;28;20468;-77
2023/11/09 11:46:08;;;;;;;0.30;0.30;;;15.40;99.90;;;;;;5098622;28;20532;-85
2023/11/09 11:48:34;;;;;;;0.40;0.40;;;15.40;99.90;;;;;;5095771;28;20468;-78
2023/11/09 11:51:06;;;;;;;0.30;0.20;;;15.40;99.90;;;;;;5098202;28;21061;-85
2023/11/09 11:53:33;;;;;;;0.30;0.20;;;15.50;99.90;;;;;;5103351;28;20797;-78
2023/11/09 11:56:11;;;;;;;0.67;0.67;;;15.40;99.90;;;;;;5124109;27;20729;-77
2023/11/09 11:58:55;;;;;;;0.30;0.20;;;15.40;99.90;;;;;;5095476;28;20561;-78
2023/11/09 12:01:23;;;;;;;0.30;0.20;;;15.30;99.90;;;;;;5099304;28;20893;-77
2023/11/09 12:03:52;;;;;;;0.30;0.20;;;15.30;99.90;;;;;;5095686;28;20517;-87
2023/11/09 12:06:21;;;;;;;0.30;0.20;;;15.20;99.90;;;;;;5092779;28;20469;-86
2023/11/09 12:08:55;;;;;;;0.30;0.20;;;15.30;99.90;;;;;;5099923;28;20964;-85
2023/11/09 12:11:26;;;;;;;0.30;0.20;;;15.30;99.90;;;;;;5097107;28;20739;-85
2023/11/09 12:13:56;;;;;;;0.30;0.20;;;15.30;99.90;;;;;;5096921;28;20520;-78
2023/11/09 12:16:24;;;;;;;0.30;0.20;;;15.30;99.90;;;;;;5094581;28;20855;-78
2023/11/09 12:18:53;;;;;;;0.30;0.20;;;15.30;99.90;;;;;;5092843;28;20510;-85
2023/11/09 12:21:24;;;;;;;0.30;0.20;;;15.30;99.90;;;;;;5084404;28;20412;-85
2023/11/09 12:23:51;;;;;;;0.30;0.20;;;15.30;99.90;;;;;;5091451;28;20503;-87
2023/11/09 12:26:18;;;;;;;0.87;0.73;;;15.40;99.90;;;;;;5103731;28;21004;-87
2023/11/09 12:28:44;;;;;;;0.30;0.20;;;15.40;99.90;;;;;;5102920;28;20502;-79
2023/11/09 12:31:13;;;;;;;0.40;0.40;;;15.40;99.90;;;;;;5104746;28;20438;-78
2023/11/09 12:33:40;;;;;;;0.30;0.20;;;15.30;99.90;;;;;;5100656;28;20750;-78
2023/11/09 12:36:06;;;;;;;0.30;0.20;;;15.30;99.90;;;;;;5101448;28;20405;-79
2023/11/09 12:38:39;;;;;;;0.30;0.20;;;15.30;99.90;;;;;;5100843;28;20840;-87
2023/11/09 12:41:06;;;;;;;0.30;0.20;;;15.30;99.90;;;;;;5100459;28;20635;-79
2023/11/09 12:43:38;;;;;;;0.30;0.20;;;15.30;99.90;;;;;;5102257;28;20500;-87
2023/11/09 12:46:11;;;;;;;0.30;0.20;;;15.30;99.90;;;;;;5094185;28;20582;-87
2023/11/09 12:48:44;;;;;;;0.30;0.20;;;15.30;99.90;;;;;;5092785;28;20542;-87
2023/11/09 12:51:23;;;;;;;0.30;0.20;;;15.20;99.90;;;;;;5102274;28;20427;-87
2023/11/09 12:53:52;;;;;;;0.30;0.20;;;15.20;99.90;;;;;;5099535;28;20873;-86
2023/11/09 12:56:21;;;;;;;0.30;0.20;;;15.20;99.90;;;;;;5087678;28;20427;-85
2023/11/09 12:58:55;;;;;;;0.30;0.20;;;15.20;99.90;;;;;;5093403;28;20571;-86
2023/11/09 13:01:22;;;;;;;0.30;0.20;;;15.20;99.90;;;;;;5105493;28;20415;-86
2023/11/09 13:03:50;;;;;;;0.30;0.20;;;15.20;99.90;;;;;;5106481;28;20524;-86
2023/11/09 13:06:23;;;;;;;0.30;0.20;;;15.30;99.90;;;;;;5098221;28;21150;-79